Station: Lombadina  

  Atmospheric Gas Attenuation - ITU Rec 676-11   ----------------- dB/100km -----------------
Date Time Temp RH % AH g/m3 Dew Point Wind Direction Speed kph Gust kph Barometer mB Rainfall Since 9am 24GHz 47GHz 76GHz 122GHz 134GHz 241GHz
08/05 09:20 25.9 39 9.44 10.9 26 35 1013.1 0 20.8 23.8 37.2 97.6 94.0 324.6
08/05 09:10 26.1 37 9.06 10.3 28 44 1013.1 0 20.0 23.3 35.8 93.8 89.4 308.6
08/05 09:00 26 38 9.25 10.6 26 43 1015.7 0 20.4 23.6 36.6 96.0 91.9 317.2
08/05 08:50 25.6 40 9.52 11 28 39 1013.1 0 21.0 24.0 37.6 98.7 95.3 329.1
08/05 08:40 25.6 39 9.28 10.6 26 35 1013.1 0 20.5 23.7 36.7 96.5 92.5 319.3
08/05 08:30 25.5 39 9.23 10.5 28 44 1015.6 0 20.3 23.7 36.7 96.4 92.2 318.3
08/05 08:20 25.4 39 9.18 10.4 30 35 1013.1 0 20.3 23.6 36.5 95.8 91.6 316.1
08/05 08:10 25.5 40 9.47 10.9 30 46 1013.1 0 20.9 24.0 37.5 98.4 94.8 327.4
08/05 08:00 25.3 42 9.83 11.5 24 43 1015.6 0 21.6 24.6 38.9 102.3 99.5 343.7
08/05 07:50 25.2 42 9.78 11.4 26 41 1013.1 0 21.5 24.5 38.7 101.7 98.8 341.4
08/05 07:40 25.1 42 9.72 11.6 24 30 1013.1 0 21.4 24.5 38.5 101.2 98.2 339.3
08/05 07:30 25 44 10.13 11.9 22 39 1015.4 0 22.3 25.2 40.2 105.5 103.4 357.4
08/05 07:18 24.8 43 9.79 11.4 24 33 1013.1 0 21.6 24.6 38.9 102.3 99.4 343.5
08/05 07:10 24.7 44 9.96 11.6 24 32 1013.1 0 21.9 24.9 39.6 104.1 101.6 351.0
08/05 07:00 24.6 45 10.13 11.9 20 30 1015.2 0 22.3 25.3 40.3 106.0 103.9 359.2
08/05 06:50 24.5 45 10.07 11.8 22 32 1013.1 0 22.2 25.1 40.1 105.4 103.2 356.5
08/05 06:40 24.3 47 10.4 12.3 24 33 1013.1 0 22.9 25.7 41.4 108.9 107.4 371.3
08/05 06:30 24.3 45 9.96 11.9 22 35 1014.9 0 21.9 25.1 39.9 104.7 102.2 353.2
08/05 06:20 24.1 48 10.5 12.4 22 30 1013.1 0 23.1 25.9 41.9 110.1 108.9 376.6
08/05 06:10 23.8 52 11.19 13.6 19 26 1013.1 0 24.5 27.0 44.6 117.5 117.9 408.0
08/05 06:00 23.9 51 11.03 13.4 22 35 1014.7 0 24.2 26.8 44.1 115.9 115.9 401.0
08/05 05:50 23.9 51 11.03 13.4 20 24 1013.1 0 24.2 26.7 44.0 115.8 115.7 400.5
08/05 05:40 23.9 51 11.03 13.4 19 24 1013.1 0 24.2 26.7 44.0 115.8 115.7 400.5
08/05 05:30 23.9 51 11.03 13.4 20 32 1014.4 0 24.2 26.8 44.0 115.9 115.9 400.9
08/05 05:20 24 51 11.1 13.5 20 26 1013.1 0 24.3 26.8 44.2 116.3 116.5 403.0
08/05 05:10 24.1 51 11.16 13.3 19 24 1013.1 0 24.5 26.9 44.4 116.8 117.1 405.1
08/05 05:00 24.2 52 11.44 13.7 20 32 1014.2 0 25.0 27.3 45.4 119.6 120.5 417.3
08/05 04:50 24.6 49 11.03 13.2 15 20 1013.1 0 24.2 26.5 43.6 114.7 114.7 397.0
08/05 04:40 24.8 45 10.24 12.1 22 33 1013.1 0 22.5 25.3 40.6 106.6 104.8 362.3
08/05 04:30 24.8 45 10.24 12.1 22 37 1014 0 22.5 25.3 40.6 106.7 104.9 362.5
08/05 04:20 24.9 45 10.3 12.2 19 26 1013.1 0 22.6 25.4 40.7 107.1 105.4 364.4
08/05 04:10 25 44 10.13 11.9 20 32 1013.1 0 22.3 25.1 40.1 105.3 103.2 356.8
08/05 04:00 25.1 45 10.42 12.3 22 39 1014 0 22.9 25.5 41.1 108.1 106.7 368.8
08/05 03:50 25.3 45 10.53 12.5 26 32 1013.1 0 23.1 25.6 41.4 108.8 107.6 372.2
08/05 03:40 25.3 45 10.53 12.5 19 28 1013.1 0 23.1 25.6 41.4 108.8 107.6 372.2
08/05 03:30 25.5 43 10.18 12 24 37 1013.8 0 22.3 25.0 40.0 105.2 103.2 356.9
08/05 03:20 25.3 44 10.3 12.2 19 24 1013.1 0 22.6 25.2 40.5 106.6 104.9 362.6
08/05 03:10 25 50 11.51 13.9 20 30 1013.1 0 25.1 27.2 45.2 119.0 120.1 415.8
08/05 02:57 25.2 49 11.41 13.7 19 26 1013.1 0 24.9 26.9 44.7 117.7 118.5 410.4
08/05 02:50 25.6 47 11.19 13.5 13 17 1013.1 0 24.4 26.5 43.7 114.9 115.2 398.9
08/05 02:40 25.9 43 10.41 12.4 26 32 1013.1 0 22.8 25.2 40.6 106.8 105.4 364.5
08/05 02:30 26 42 10.23 12.1 28 44 1013.8 0 22.4 25.0 40.0 105.0 103.2 356.7
08/05 02:20 25.9 43 10.41 12.4 26 37 1013.1 0 22.8 25.2 40.6 106.8 105.4 364.5
08/05 02:10 26.1 42 10.28 12.5 26 32 1013.1 0 22.5 25.0 40.1 105.3 103.6 358.1
08/05 02:00 26.3 43 10.65 12.7 24 37 1013.9 0 23.3 25.5 41.3 108.7 107.8 372.9
08/05 01:50 26.3 42 10.4 12.4 22 37 1013.1 0 22.8 25.1 40.4 106.2 104.7 362.2
08/05 01:40 26.3 46 11.39 13.8 20 28 1013.1 0 24.8 26.6 44.0 115.9 116.7 403.9
08/05 01:30 26.5 43 10.76 12.9 22 39 1013.9 0 23.5 25.6 41.6 109.5 108.8 376.6
08/05 01:20 26.5 43 10.76 12.9 20 28 1013.1 0 23.5 25.6 41.6 109.4 108.8 376.3
08/05 01:10 26.6 41 10.32 12.6 22 33 1013.1 0 22.6 24.9 40.0 105.1 103.4 357.6
08/05 01:00 26.7 42 10.63 12.7 22 35 1014.1 0 23.2 25.4 41.1 108.0 107.0 370.3
08/05 00:50 26.9 40 10.24 12.5 20 32 1013.1 0 22.4 24.7 39.5 103.9 102.1 353.0
08/05 00:39 27 41 10.55 12.6 26 32 1013.1 0 23.0 25.1 40.6 106.7 105.6 365.3
08/05 00:30 26.8 41 10.44 12.5 22 37 1014.1 0 22.8 25.1 40.3 106.1 104.6 361.9
08/05 00:20 26.6 46 11.58 14 17 20 1013.1 0 25.2 26.8 44.6 117.4 118.5 410.6
08/05 00:10 26.7 46 11.64 14.1 20 24 1013.1 0 25.3 26.8 44.7 117.8 119.1 412.6
08/05 00:00 26.7 45 11.39 13.8 20 33 1014.2 0 24.8 26.5 43.9 115.4 116.2 402.3
07/05 23:50 26.6 43 10.82 13.3 17 24 1013.1 0 23.6 25.6 41.8 109.9 109.3 378.4
07/05 23:40 26.7 43 10.88 13.1 24 32 1013.1 0 23.7 25.7 41.9 110.3 109.9 380.4
07/05 23:30 26.5 45 11.26 13.6 20 41 1014.4 0 24.5 26.4 43.5 114.5 114.9 397.8
07/05 23:20 25.9 48 11.62 14.1 15 20 1013.1 0 25.3 27.1 45.1 118.8 120.1 415.9
07/05 23:10 25.7 49 11.73 14.2 15 20 1013.1 0 25.6 27.3 45.6 120.2 121.8 421.7
07/05 23:00 26.1 46 11.26 13.6 17 30 1014.6 0 24.6 26.5 43.7 115.1 115.5 399.9
07/05 22:50 27.2 42 10.93 13.5 20 24 1013.1 0 23.8 25.6 41.9 110.1 109.8 380.1
07/05 22:40 27.8 39 10.49 12.6 20 30 1013.1 0 22.9 24.8 40.0 105.1 103.8 359.2
07/05 22:30 27.9 39 10.55 12.7 17 26 1014.6 0 23.0 24.9 40.2 105.7 104.5 361.7
07/05 22:20 28 39 10.61 12.8 19 26 1013.1 0 23.1 25.0 40.3 106.0 105.0 363.3
07/05 22:10 28.1 38 10.39 12.8 17 24 1013.1 0 22.6 24.6 39.5 103.8 102.3 353.9
07/05 22:00 28.1 38 10.39 12.5 17 26 1014.8 0 22.6 24.7 39.5 104.0 102.4 354.4
07/05 21:50 28.2 37 10.17 12.5 15 24 1013.1 0 22.2 24.3 38.7 101.6 99.6 344.6
07/05 21:40 28.2 37 10.17 12.5 19 30 1013.1 0 22.2 24.3 38.7 101.6 99.6 344.6
07/05 21:30 28.4 37 10.29 12.3 19 32 1014.7 0 22.4 24.4 39.0 102.6 100.9 349.0
07/05 21:20 28.6 34 9.56 11.6 22 32 1013.1 0 20.9 23.3 36.4 95.5 92.3 318.7
07/05 21:10 28.6 34 9.56 11.6 20 24 1013.1 0 20.9 23.3 36.4 95.5 92.3 318.7
07/05 21:00 28.3 38 10.51 12.6 15 26 1014.8 0 22.9 24.8 39.9 104.8 103.6 358.3
07/05 20:50 27.7 41 10.97 13.3 13 17 1013.1 0 23.9 25.6 41.7 109.8 109.6 379.4
07/05 20:40 27.3 45 11.78 14.3 11 13 1013.1 0 25.6 26.9 44.9 118.3 119.9 415.5
07/05 20:30 27.2 46 11.97 14.6 13 20 1014.8 0 26.0 27.3 45.8 120.6 122.6 424.7
07/05 20:20 26.3 48 11.88 14.7 17 20 1013.1 0 25.8 27.3 45.9 120.8 122.7 425.1
07/05 20:10 25.9 52 12.59 15.3 9 11 1013.1 0 27.4 28.6 48.8 128.7 132.3 458.5
07/05 20:00 26 51 12.42 15.1 9 13 1014.7 0 27.0 28.3 48.2 127.0 130.1 451.0
07/05 19:50 26.2 48 11.82 14.6 11 13 1013.1 0 25.7 27.3 45.7 120.4 122.1 423.0
07/05 19:40 26.2 48 11.82 14.6 11 13 1013.1 0 25.7 27.3 45.7 120.4 122.1 423.0
07/05 19:30 26.3 48 11.88 14.4 9 15 1014.2 0 25.8 27.4 45.9 120.9 122.8 425.4
07/05 19:20 26.5 48 12.02 14.6 9 13 1013.1 0 26.1 27.5 46.3 121.9 124.1 430.1
07/05 19:10 26.5 49 12.27 14.9 9 13 1013.1 0 26.6 27.9 47.2 124.5 127.2 441.0
07/05 19:00 26.3 49 12.13 15 9 11 1013.9 0 26.4 27.7 46.8 123.4 125.9 436.2
07/05 18:50 26.1 51 12.49 15.2 9 11 1013.1 0 27.1 28.3 48.3 127.3 130.7 452.9
07/05 18:40 26 52 12.66 15.4 7 9 1013.1 0 27.5 28.6 49.0 129.3 133.0 461.1
07/05 18:30 25.7 53 12.69 15.4 7 11 1013.6 0 27.6 28.8 49.4 130.1 134.0 464.3
07/05 18:20 25.7 54 12.93 15.7 7 9 1013.1 0 28.1 29.2 50.3 132.6 137.0 475.0
07/05 18:10 26 55 13.39 16.3 7 7 1013.1 0 29.0 29.8 51.9 136.9 142.4 494.0
07/05 18:00 26.2 54 13.29 16.2 7 9 1013.3 0 28.8 29.6 51.4 135.6 140.8 488.3
07/05 17:50 26.4 52 12.95 16 7 9 1013.1 0 28.1 29.0 49.9 131.6 136.0 471.7
07/05 17:40 27 52 13.38 16.3 6 7 1013.1 0 28.9 29.4 51.2 135.1 140.5 487.3
07/05 17:30 27.4 50 13.16 16.1 6 7 1013.1 0 28.4 29.0 50.1 132.1 137.0 475.1
07/05 17:20 27.6 49 13.04 16.2 6 7 1013.1 0 28.2 28.7 49.5 130.6 135.1 468.6
07/05 17:10 28 49 13.33 16.3 7 9 1013.1 0 28.8 29.0 50.4 132.9 138.1 479.0
07/05 17:00 28.2 47 12.92 16.1 7 11 1013 0 27.9 28.3 48.7 128.4 132.6 459.8
07/05 16:50 28.3 47 12.99 16.2 7 9 1013.1 0 28.0 28.4 48.9 128.9 133.3 462.3

Last Refresh: 08-May-2026 11:03:48

Bureau of Meteorology